Time;durP1;ratioP1;P1;durP2;ratioP2;P2;SDS_P1;SDS_P2;PMS_P1;PMS_P2;Temp;Humidity;BMP_temperature;BMP_pressure;BME280_temperature;BME280_humidity;BME280_pressure;Samples;Min_cycle;Max_cycle;Signal;HPM_P1;HPM_P2
2022/07/13 00:01:25;;;;;;;0.98;0.98;;;18.40;65.00;;;;;;5092617;28;20056;-77
2022/07/13 00:03:51;;;;;;;1.27;1.10;;;18.30;65.10;;;;;;5092347;28;20059;-77
2022/07/13 00:06:18;;;;;;;1.45;1.00;;;18.30;65.20;;;;;;5091289;28;20033;-77
2022/07/13 00:08:44;;;;;;;1.23;1.13;;;18.30;65.40;;;;;;5092132;28;20032;-77
2022/07/13 00:11:10;;;;;;;1.52;0.95;;;18.30;65.50;;;;;;5091310;28;20059;-77
2022/07/13 00:13:35;;;;;;;1.10;1.00;;;18.20;65.60;;;;;;5091933;28;20468;-76
2022/07/13 00:16:01;;;;;;;1.20;0.98;;;18.20;65.70;;;;;;5092480;28;20024;-76
2022/07/13 00:18:27;;;;;;;2.85;1.00;;;18.20;65.60;;;;;;5092624;28;20534;-74
2022/07/13 00:20:52;;;;;;;0.95;0.88;;;18.20;65.50;;;;;;5091142;28;20034;-77
2022/07/13 00:23:19;;;;;;;2.25;1.00;;;18.20;65.40;;;;;;5092433;28;20090;-76
2022/07/13 00:25:44;;;;;;;1.85;1.00;;;18.20;65.60;;;;;;5092026;28;20020;-76
2022/07/13 00:28:10;;;;;;;1.25;0.93;;;18.20;65.60;;;;;;5092086;28;20349;-76
2022/07/13 00:30:36;;;;;;;1.10;0.73;;;18.20;66.30;;;;;;5092288;28;20032;-76
2022/07/13 00:33:02;;;;;;;3.40;0.90;;;18.20;65.70;;;;;;5095800;28;20494;-76
2022/07/13 00:35:27;;;;;;;2.75;1.00;;;18.20;65.90;;;;;;5095955;28;20150;-76
2022/07/13 00:37:53;;;;;;;1.60;1.10;;;18.10;65.90;;;;;;5095942;28;20020;-76
2022/07/13 00:40:19;;;;;;;1.52;1.35;;;18.10;66.10;;;;;;5095915;28;20099;-76
2022/07/13 00:42:44;;;;;;;0.90;0.85;;;18.10;65.90;;;;;;5095219;28;20465;-76
2022/07/13 00:45:10;;;;;;;1.48;0.93;;;18.10;65.90;;;;;;5095719;28;20024;-76
2022/07/13 00:47:37;;;;;;;1.15;0.80;;;18.10;65.80;;;;;;5095324;28;20028;-78
2022/07/13 00:50:06;;;;;;;1.00;0.90;;;18.10;66.00;;;;;;5095720;28;20502;-77
2022/07/13 00:52:32;;;;;;;1.48;0.80;;;18.10;66.00;;;;;;5095090;28;20076;-77
2022/07/13 00:54:59;;;;;;;1.83;1.02;;;18.00;65.80;;;;;;5095576;28;20032;-77
2022/07/13 00:57:26;;;;;;;1.40;0.93;;;18.10;65.90;;;;;;5095293;28;20056;-77
2022/07/13 00:59:52;;;;;;;1.02;0.93;;;18.10;66.00;;;;;;5095168;28;20023;-76
2022/07/13 01:02:18;;;;;;;1.45;0.70;;;18.10;65.90;;;;;;5095195;28;20024;-77
2022/07/13 01:04:44;;;;;;;1.40;0.90;;;18.00;66.10;;;;;;5095052;28;20024;-77
2022/07/13 01:07:10;;;;;;;1.55;1.05;;;18.00;66.00;;;;;;5095365;28;20020;-78
2022/07/13 01:09:36;;;;;;;2.13;0.90;;;18.00;66.10;;;;;;5094672;28;20248;-77
2022/07/13 01:12:02;;;;;;;1.55;1.00;;;18.00;66.10;;;;;;5095254;28;20101;-77
2022/07/13 01:14:29;;;;;;;1.60;1.15;;;18.00;66.10;;;;;;5094846;28;20028;-77
2022/07/13 01:16:55;;;;;;;1.15;1.05;;;18.00;66.00;;;;;;5093542;28;20078;-77
2022/07/13 01:19:22;;;;;;;1.17;0.90;;;18.00;66.10;;;;;;5095230;28;20051;-77
2022/07/13 01:21:51;;;;;;;0.90;0.90;;;18.00;66.00;;;;;;5094665;28;20032;-77
2022/07/13 01:24:17;;;;;;;1.98;0.90;;;18.00;66.10;;;;;;5094771;28;20031;-77
2022/07/13 01:26:43;;;;;;;3.10;0.90;;;18.00;66.20;;;;;;5094319;28;20460;-77
2022/07/13 01:29:09;;;;;;;0.80;0.80;;;17.90;66.30;;;;;;5094565;28;20048;-77
2022/07/13 01:31:41;;;;;;;1.15;0.90;;;17.90;66.30;;;;;;5094528;28;20031;-76
2022/07/13 01:34:08;;;;;;;1.35;1.00;;;17.90;66.30;;;;;;5094320;28;20024;-77
2022/07/13 01:36:35;;;;;;;1.83;1.40;;;17.90;66.30;;;;;;5094198;28;20111;-76
2022/07/13 01:39:01;;;;;;;1.80;1.02;;;17.90;66.40;;;;;;5094891;28;20024;-77
2022/07/13 01:41:29;;;;;;;1.88;0.95;;;17.90;66.30;;;;;;5094167;28;20077;-77
2022/07/13 01:43:57;;;;;;;1.30;0.82;;;17.90;66.40;;;;;;5093294;28;20090;-78
2022/07/13 01:46:23;;;;;;;1.42;1.17;;;17.90;66.50;;;;;;5094607;28;20161;-78
2022/07/13 01:48:49;;;;;;;1.15;0.85;;;17.90;66.60;;;;;;5094216;28;20032;-76
2022/07/13 01:51:15;;;;;;;1.35;1.10;;;17.90;66.90;;;;;;5094427;28;20160;-76
2022/07/13 01:53:40;;;;;;;1.45;1.00;;;17.80;66.90;;;;;;5093787;28;20036;-76
2022/07/13 01:56:06;;;;;;;1.02;0.93;;;17.80;67.10;;;;;;5094452;28;20039;-76
2022/07/13 01:58:32;;;;;;;1.35;1.20;;;17.80;67.30;;;;;;5094361;28;20534;-77
2022/07/13 02:00:58;;;;;;;0.73;0.73;;;17.70;67.40;;;;;;5093905;28;20477;-77
2022/07/13 02:03:24;;;;;;;1.85;0.95;;;17.70;67.30;;;;;;5094243;28;20071;-77
2022/07/13 02:05:50;;;;;;;5.13;1.02;;;17.70;67.50;;;;;;5093583;28;20088;-77
2022/07/13 02:08:16;;;;;;;2.17;1.10;;;17.70;67.60;;;;;;5094050;28;20108;-77
2022/07/13 02:10:42;;;;;;;0.80;0.80;;;17.70;67.80;;;;;;5093733;28;20066;-77
2022/07/13 02:13:11;;;;;;;1.70;1.08;;;17.70;67.90;;;;;;5093763;28;20037;-77
2022/07/13 02:15:37;;;;;;;2.35;1.15;;;17.70;68.20;;;;;;5093645;28;20472;-75
2022/07/13 02:18:03;;;;;;;1.33;1.23;;;17.60;68.50;;;;;;5093850;28;20038;-77
2022/07/13 02:20:30;;;;;;;1.00;0.95;;;17.60;68.70;;;;;;5093863;28;20024;-77
2022/07/13 02:22:55;;;;;;;1.65;1.05;;;17.60;68.70;;;;;;5093193;28;20036;-77
2022/07/13 02:25:21;;;;;;;2.83;1.02;;;17.50;68.90;;;;;;5093979;28;20377;-77
2022/07/13 02:27:47;;;;;;;1.63;0.98;;;17.50;69.10;;;;;;5093010;28;20059;-77
2022/07/13 02:30:15;;;;;;;1.20;1.02;;;17.50;69.20;;;;;;5093934;28;20138;-76
2022/07/13 02:32:42;;;;;;;0.70;0.70;;;17.50;69.60;;;;;;5093172;28;20024;-76
2022/07/13 02:35:08;;;;;;;2.47;1.30;;;17.50;69.60;;;;;;5093649;28;20028;-77
2022/07/13 02:37:34;;;;;;;1.08;0.98;;;17.50;69.80;;;;;;5092240;28;20024;-77
2022/07/13 02:40:00;;;;;;;1.00;0.90;;;17.50;70.40;;;;;;5093190;28;20046;-76
2022/07/13 02:42:25;;;;;;;1.20;1.10;;;17.50;70.00;;;;;;5093895;28;20047;-76
2022/07/13 02:44:52;;;;;;;1.58;1.05;;;17.50;70.00;;;;;;5093218;28;20020;-77
2022/07/13 02:47:18;;;;;;;1.83;1.10;;;17.40;70.10;;;;;;5093449;28;20020;-77
2022/07/13 02:49:44;;;;;;;1.20;1.10;;;17.40;70.10;;;;;;5093082;28;20026;-77
2022/07/13 02:52:10;;;;;;;1.20;0.75;;;17.40;70.10;;;;;;5093419;28;20028;-77
2022/07/13 02:54:35;;;;;;;3.25;1.10;;;17.40;70.30;;;;;;5093102;28;20434;-77
2022/07/13 02:57:01;;;;;;;1.85;1.20;;;17.40;70.30;;;;;;5092601;28;20066;-77
2022/07/13 02:59:30;;;;;;;1.27;1.17;;;17.40;70.50;;;;;;5093070;28;20403;-77
2022/07/13 03:01:56;;;;;;;0.70;0.70;;;17.40;70.50;;;;;;5092829;28;20056;-77
2022/07/13 03:04:21;;;;;;;1.75;1.33;;;17.40;70.70;;;;;;5092978;28;20063;-78
2022/07/13 03:06:47;;;;;;;0.80;0.80;;;17.40;70.80;;;;;;5092741;28;20078;-78
2022/07/13 03:09:13;;;;;;;1.27;1.00;;;17.40;70.80;;;;;;5092864;28;20380;-77
2022/07/13 03:11:38;;;;;;;1.00;0.90;;;17.30;70.90;;;;;;5093441;28;20479;-77
2022/07/13 03:14:04;;;;;;;0.73;0.70;;;17.40;71.00;;;;;;5092598;28;20028;-76
2022/07/13 03:16:29;;;;;;;5.55;0.80;;;17.30;71.00;;;;;;5093032;28;20024;-77
2022/07/13 03:18:55;;;;;;;1.23;0.80;;;17.30;71.10;;;;;;5092633;28;20114;-76
2022/07/13 03:21:21;;;;;;;1.40;0.95;;;17.40;71.20;;;;;;5093336;28;20028;-76
2022/07/13 03:23:46;;;;;;;1.55;1.45;;;17.40;71.20;;;;;;5091358;28;20380;-76
2022/07/13 03:26:12;;;;;;;1.90;1.30;;;17.40;71.30;;;;;;5092981;28;20040;-76
2022/07/13 03:28:37;;;;;;;1.45;1.20;;;17.40;71.20;;;;;;5092750;28;20052;-76
2022/07/13 03:31:03;;;;;;;1.42;1.17;;;17.40;71.30;;;;;;5092321;28;20031;-76
2022/07/13 03:33:29;;;;;;;1.40;1.00;;;17.40;71.50;;;;;;5092423;28;20035;-76
2022/07/13 03:35:54;;;;;;;1.17;1.08;;;17.40;71.60;;;;;;5091978;28;20028;-77
2022/07/13 03:38:20;;;;;;;1.48;1.05;;;17.40;71.80;;;;;;5092768;28;20345;-76
2022/07/13 03:40:47;;;;;;;1.08;0.77;;;17.50;71.90;;;;;;5091240;28;20035;-76
2022/07/13 03:43:12;;;;;;;1.30;0.85;;;17.50;72.00;;;;;;5092878;28;20024;-76
2022/07/13 03:45:38;;;;;;;3.25;0.98;;;17.50;72.10;;;;;;5091639;28;20024;-77
2022/07/13 03:48:05;;;;;;;1.45;1.13;;;17.50;72.10;;;;;;5091671;28;20063;-76
2022/07/13 03:50:31;;;;;;;1.00;0.90;;;17.50;72.20;;;;;;5072411;28;20418;-76
2022/07/13 03:52:57;;;;;;;0.93;0.88;;;17.50;72.30;;;;;;5071984;28;20412;-77
2022/07/13 03:55:23;;;;;;;1.15;0.90;;;17.50;72.40;;;;;;5072617;28;20029;-78
2022/07/13 03:57:48;;;;;;;1.00;0.88;;;17.50;72.40;;;;;;5072372;28;20020;-78
2022/07/13 04:00:14;;;;;;;1.02;0.73;;;17.50;72.40;;;;;;5072149;28;20068;-77
2022/07/13 04:02:41;;;;;;;1.38;1.00;;;17.50;72.20;;;;;;5072162;28;20036;-76
2022/07/13 04:05:07;;;;;;;1.08;0.80;;;17.60;72.30;;;;;;5071984;28;20033;-76
2022/07/13 04:07:33;;;;;;;1.10;0.90;;;17.60;72.20;;;;;;5075799;28;20029;-77
2022/07/13 04:09:58;;;;;;;1.08;0.93;;;17.60;72.20;;;;;;5075775;28;20377;-77
2022/07/13 04:12:24;;;;;;;1.00;0.90;;;17.70;72.10;;;;;;5076254;28;20029;-77
2022/07/13 04:14:50;;;;;;;2.35;1.13;;;17.70;71.80;;;;;;5075686;28;20358;-77
2022/07/13 04:17:16;;;;;;;1.10;0.90;;;17.80;71.50;;;;;;5076109;28;20036;-77
2022/07/13 04:19:41;;;;;;;1.23;0.90;;;17.90;71.00;;;;;;5075988;28;20028;-77
2022/07/13 04:22:07;;;;;;;2.28;0.98;;;18.00;70.50;;;;;;5075586;28;20060;-77
2022/07/13 04:24:33;;;;;;;1.38;0.90;;;18.20;70.00;;;;;;5075930;28;20039;-77
2022/07/13 04:26:59;;;;;;;1.13;1.02;;;18.30;69.30;;;;;;5075461;28;20025;-77
2022/07/13 04:29:24;;;;;;;2.53;0.80;;;18.50;69.00;;;;;;5075720;28;20053;-77
2022/07/13 04:31:50;;;;;;;0.73;0.70;;;18.60;68.70;;;;;;5075330;28;20042;-77
2022/07/13 04:34:16;;;;;;;1.60;1.02;;;18.70;68.40;;;;;;5075731;28;20033;-77
2022/07/13 04:36:43;;;;;;;1.75;1.00;;;18.90;68.00;;;;;;5075726;28;20052;-77
2022/07/13 04:39:09;;;;;;;1.50;1.00;;;19.00;67.60;;;;;;5075064;28;20079;-77
2022/07/13 04:41:34;;;;;;;1.23;0.98;;;19.20;67.20;;;;;;5075491;28;20025;-78
2022/07/13 04:44:00;;;;;;;1.10;1.00;;;19.30;66.40;;;;;;5075371;28;20500;-77
2022/07/13 04:46:27;;;;;;;1.83;1.10;;;19.50;66.10;;;;;;5075243;28;20033;-79
2022/07/13 04:48:53;;;;;;;1.17;1.02;;;19.70;65.50;;;;;;5075219;28;20032;-78
2022/07/13 04:51:19;;;;;;;1.13;0.98;;;19.90;65.20;;;;;;5075355;28;20482;-79
2022/07/13 04:53:45;;;;;;;0.98;0.75;;;20.00;64.60;;;;;;5075106;28;20063;-78
2022/07/13 04:56:11;;;;;;;1.40;1.00;;;20.10;64.10;;;;;;5074898;28;20020;-78
2022/07/13 04:58:37;;;;;;;1.08;0.90;;;20.30;63.50;;;;;;5075220;28;20036;-78
2022/07/13 05:01:06;;;;;;;1.63;0.98;;;20.40;63.00;;;;;;5074766;28;20028;-78
2022/07/13 05:03:32;;;;;;;2.25;1.00;;;20.50;62.70;;;;;;5075110;28;20029;-78
2022/07/13 05:05:58;;;;;;;1.15;1.05;;;20.50;62.70;;;;;;5075027;28;20514;-79
2022/07/13 05:08:23;;;;;;;0.70;0.70;;;20.60;62.60;;;;;;5074991;28;20021;-78
2022/07/13 05:10:50;;;;;;;2.13;0.90;;;20.60;62.30;;;;;;5076127;28;20078;-77
2022/07/13 05:13:15;;;;;;;1.13;1.00;;;20.70;62.40;;;;;;5093285;28;20043;-78
2022/07/13 05:15:41;;;;;;;1.15;0.70;;;20.80;62.40;;;;;;5093820;28;20020;-79
2022/07/13 05:18:07;;;;;;;1.10;0.90;;;20.90;62.10;;;;;;5094205;28;20115;-79
2022/07/13 05:20:32;;;;;;;0.80;0.80;;;21.00;61.60;;;;;;5095303;28;20030;-79
2022/07/13 05:22:58;;;;;;;2.15;1.08;;;21.10;61.40;;;;;;5094783;28;20364;-78
2022/07/13 05:25:24;;;;;;;2.13;0.93;;;21.20;61.20;;;;;;5094869;28;20441;-76
2022/07/13 05:27:49;;;;;;;2.08;1.20;;;21.20;61.20;;;;;;5094702;28;20413;-77
2022/07/13 05:30:18;;;;;;;2.90;1.63;;;21.10;61.10;;;;;;5094123;28;20040;-77
2022/07/13 05:32:44;;;;;;;1.00;0.75;;;21.10;61.20;;;;;;5094906;28;20035;-77
2022/07/13 05:35:09;;;;;;;2.33;1.05;;;21.00;61.80;;;;;;5094146;28;20028;-77
2022/07/13 05:37:35;;;;;;;1.90;1.02;;;20.90;62.10;;;;;;5093816;28;20024;-77
2022/07/13 05:40:01;;;;;;;3.72;1.40;;;20.80;62.50;;;;;;5093783;28;20117;-77
2022/07/13 05:42:27;;;;;;;1.33;1.15;;;20.80;62.70;;;;;;5094143;28;20051;-77
2022/07/13 05:44:53;;;;;;;3.08;1.33;;;20.70;63.00;;;;;;5092341;28;20114;-78
2022/07/13 05:47:18;;;;;;;2.05;1.02;;;20.60;63.40;;;;;;5094013;28;20599;-76
2022/07/13 05:49:44;;;;;;;0.95;0.70;;;20.60;63.80;;;;;;5094505;28;20418;-78
2022/07/13 05:52:10;;;;;;;2.05;1.10;;;20.60;64.00;;;;;;5089115;28;20020;-77
2022/07/13 05:54:35;;;;;;;1.42;1.33;;;20.50;64.10;;;;;;5093723;28;20038;-77
2022/07/13 05:57:01;;;;;;;1.48;1.00;;;20.50;64.40;;;;;;5093745;28;20482;-77
2022/07/13 05:59:27;;;;;;;1.63;1.00;;;20.50;64.50;;;;;;5092816;28;20099;-78
2022/07/13 06:01:53;;;;;;;1.42;1.00;;;20.50;64.60;;;;;;5094198;28;20058;-78
2022/07/13 06:04:19;;;;;;;1.30;1.20;;;20.50;64.80;;;;;;5093552;28;20054;-79
2022/07/13 06:06:46;;;;;;;2.75;1.05;;;20.60;64.80;;;;;;5093268;28;20583;-78
2022/07/13 06:09:11;;;;;;;2.22;1.20;;;20.70;64.50;;;;;;5092983;28;20052;-78
2022/07/13 06:11:37;;;;;;;1.90;0.95;;;20.90;64.00;;;;;;5094039;28;20067;-79
2022/07/13 06:14:03;;;;;;;2.05;1.30;;;21.30;63.20;;;;;;5092831;28;20040;-77
2022/07/13 06:16:29;;;;;;;1.02;0.70;;;21.80;62.40;;;;;;5093525;28;20027;-77
2022/07/13 06:18:55;;;;;;;1.25;1.10;;;22.40;60.20;;;;;;5093834;28;20077;-79
2022/07/13 06:21:20;;;;;;;1.33;1.17;;;23.00;57.80;;;;;;5093423;28;20422;-78
2022/07/13 06:23:46;;;;;;;1.30;1.02;;;23.70;56.00;;;;;;5092505;28;20036;-78
2022/07/13 06:26:11;;;;;;;3.17;1.00;;;24.20;53.90;;;;;;5092763;28;20028;-78
2022/07/13 06:28:37;;;;;;;1.05;1.02;;;24.50;53.40;;;;;;5092480;28;20083;-75
2022/07/13 06:31:02;;;;;;;1.10;1.00;;;25.00;52.50;;;;;;5092516;28;20109;-78
2022/07/13 06:33:28;;;;;;;2.58;0.90;;;25.40;51.00;;;;;;5092924;28;20032;-79
2022/07/13 06:35:54;;;;;;;0.90;0.80;;;25.70;50.40;;;;;;5093571;28;20165;-78
2022/07/13 06:38:19;;;;;;;1.10;0.73;;;26.10;49.40;;;;;;5093149;28;20032;-78
2022/07/13 06:40:49;;;;;;;1.00;0.90;;;26.30;49.00;;;;;;5093244;28;20030;-79
2022/07/13 06:43:15;;;;;;;0.93;0.82;;;26.60;48.30;;;;;;5092855;28;20058;-78
2022/07/13 06:45:41;;;;;;;1.15;0.88;;;26.90;48.10;;;;;;5093169;28;20028;-78
2022/07/13 06:48:06;;;;;;;0.77;0.77;;;27.10;46.70;;;;;;5092368;28;20110;-78
2022/07/13 06:50:32;;;;;;;1.23;0.85;;;27.30;46.60;;;;;;5092514;28;20031;-78
2022/07/13 06:52:58;;;;;;;2.83;0.88;;;27.50;46.00;;;;;;5092166;28;20024;-78
2022/07/13 06:55:23;;;;;;;0.60;0.60;;;27.80;45.80;;;;;;5092254;28;20032;-78
2022/07/13 06:57:49;;;;;;;1.83;1.10;;;27.90;44.70;;;;;;5093477;28;20407;-79
2022/07/13 07:00:15;;;;;;;0.68;0.68;;;28.20;44.00;;;;;;5091182;28;20379;-77
2022/07/13 07:02:40;;;;;;;2.35;0.82;;;28.40;43.80;;;;;;5092523;28;20020;-77
2022/07/13 07:05:09;;;;;;;0.80;0.70;;;28.80;42.80;;;;;;5092662;28;20403;-78
2022/07/13 07:07:35;;;;;;;2.08;0.75;;;28.70;43.00;;;;;;5093116;28;20078;-78
2022/07/13 07:10:02;;;;;;;1.00;0.90;;;29.00;42.60;;;;;;5092144;28;20090;-78
2022/07/13 07:12:27;;;;;;;1.52;0.82;;;29.30;42.70;;;;;;5092618;28;20085;-78
2022/07/13 07:14:53;;;;;;;0.77;0.77;;;29.70;41.90;;;;;;5092687;28;20060;-78
2022/07/13 07:17:19;;;;;;;5.13;1.20;;;29.90;40.90;;;;;;5092541;28;20032;-77
2022/07/13 07:19:44;;;;;;;1.02;0.75;;;30.00;41.00;;;;;;5092800;28;20372;-79
2022/07/13 07:22:11;;;;;;;0.90;0.90;;;30.30;40.10;;;;;;5092459;28;20024;-77
2022/07/13 07:24:38;;;;;;;1.77;0.70;;;30.00;39.70;;;;;;5092549;28;20137;-77
2022/07/13 07:27:07;;;;;;;1.00;0.73;;;30.40;39.20;;;;;;5092447;28;20375;-78
2022/07/13 07:29:36;;;;;;;1.23;0.80;;;30.50;39.50;;;;;;5092387;28;20040;-78
2022/07/13 07:32:02;;;;;;;1.65;0.80;;;30.40;38.90;;;;;;5092098;28;20028;-75
2022/07/13 07:34:28;;;;;;;0.70;0.70;;;30.50;39.40;;;;;;5092293;28;20032;-78
2022/07/13 07:36:54;;;;;;;0.60;0.60;;;30.70;38.90;;;;;;5092920;28;20032;-78
2022/07/13 07:39:21;;;;;;;0.70;0.70;;;31.00;38.40;;;;;;5092874;28;20020;-78
2022/07/13 07:41:47;;;;;;;0.80;0.80;;;30.80;38.10;;;;;;5094762;28;20079;-78
2022/07/13 07:44:13;;;;;;;0.73;0.70;;;30.90;37.90;;;;;;5096312;28;20028;-78
2022/07/13 07:46:39;;;;;;;1.75;1.33;;;30.90;37.70;;;;;;5096503;28;20047;-78
2022/07/13 07:49:04;;;;;;;0.63;0.63;;;31.00;37.90;;;;;;5095967;28;20028;-78
2022/07/13 07:51:30;;;;;;;0.73;0.73;;;31.20;37.80;;;;;;5096569;28;20028;-77
2022/07/13 07:53:56;;;;;;;0.90;0.77;;;31.90;36.80;;;;;;5096383;28;20076;-78
2022/07/13 07:56:22;;;;;;;0.50;0.50;;;32.30;36.20;;;;;;5096045;28;20032;-77
2022/07/13 07:58:48;;;;;;;0.80;0.80;;;32.80;36.10;;;;;;5095944;28;20031;-75
2022/07/13 08:01:14;;;;;;;0.80;0.80;;;33.30;35.50;;;;;;5096050;28;20411;-76
2022/07/13 08:03:39;;;;;;;0.73;0.70;;;33.20;35.40;;;;;;5096239;28;20038;-75
2022/07/13 08:06:05;;;;;;;1.17;1.00;;;33.30;34.50;;;;;;5096000;28;20399;-73
2022/07/13 08:08:31;;;;;;;1.27;1.17;;;33.20;35.20;;;;;;5094750;28;20486;-73
2022/07/13 08:10:57;;;;;;;1.35;0.75;;;33.50;34.90;;;;;;5095964;28;20457;-74
2022/07/13 08:13:22;;;;;;;1.10;0.85;;;33.80;34.80;;;;;;5095112;28;20038;-71
2022/07/13 08:15:48;;;;;;;1.25;0.82;;;33.80;35.20;;;;;;5095981;28;20039;-71
2022/07/13 08:18:14;;;;;;;1.10;0.80;;;34.10;34.50;;;;;;5095570;28;20073;-72
2022/07/13 08:20:39;;;;;;;3.03;1.20;;;34.10;34.30;;;;;;5094749;28;20048;-72
2022/07/13 08:23:50;;;;;;;0.70;0.70;;;33.90;34.80;;;;;;5094109;28;20034;-72
2022/07/13 08:25:51;;;;;;;0.90;0.70;;;34.30;34.40;;;;;;5093427;28;20032;-72
2022/07/13 08:28:16;;;;;;;3.17;0.80;;;34.60;33.90;;;;;;5093729;28;20028;-72
2022/07/13 08:30:42;;;;;;;0.80;0.80;;;35.00;33.90;;;;;;5094781;28;20028;-71
2022/07/13 08:33:07;;;;;;;1.15;0.82;;;34.70;33.70;;;;;;5094683;28;20032;-72
2022/07/13 08:38:35;;;;;;;1.05;0.95;;;34.10;33.20;;;;;;5094234;28;20081;-72
2022/07/13 08:41:01;;;;;;;5.07;1.08;;;34.20;33.90;;;;;;5095731;28;20111;-72
2022/07/13 08:43:27;;;;;;;0.70;0.70;;;34.00;34.60;;;;;;5095248;28;20043;-72
2022/07/13 08:45:53;;;;;;;1.67;0.90;;;33.70;34.70;;;;;;5095424;28;20028;-71
2022/07/13 08:48:31;;;;;;;1.05;0.80;;;33.00;35.30;;;;;;5095033;28;20047;-72
2022/07/13 08:50:58;;;;;;;0.85;0.85;;;32.10;36.30;;;;;;5094586;28;20483;-72
2022/07/13 08:53:24;;;;;;;1.00;0.75;;;31.20;37.30;;;;;;5094013;28;20020;-72
2022/07/13 08:55:50;;;;;;;1.17;0.80;;;30.30;37.30;;;;;;5094912;28;20146;-72
2022/07/13 08:58:17;;;;;;;0.70;0.70;;;29.80;38.50;;;;;;5093127;28;20111;-72
2022/07/13 09:00:43;;;;;;;0.68;0.68;;;29.60;38.70;;;;;;5094240;28;20173;-72
2022/07/13 09:03:09;;;;;;;0.95;0.88;;;29.20;38.80;;;;;;5094871;28;20504;-73
2022/07/13 09:05:35;;;;;;;1.23;1.13;;;29.00;39.30;;;;;;5095230;28;20380;-72
2022/07/13 09:08:05;;;;;;;0.60;0.60;;;28.80;40.90;;;;;;5095221;28;20020;-73
2022/07/13 09:10:31;;;;;;;1.17;1.00;;;28.60;40.70;;;;;;5094247;28;20495;-72
2022/07/13 09:12:57;;;;;;;1.10;1.00;;;28.50;40.70;;;;;;5094752;28;20132;-72
2022/07/13 09:15:22;;;;;;;0.68;0.68;;;28.40;41.30;;;;;;5094567;28;20495;-73
2022/07/13 09:17:48;;;;;;;0.80;0.77;;;28.30;41.30;;;;;;5094774;28;20379;-73
2022/07/13 09:20:13;;;;;;;0.75;0.75;;;28.30;40.60;;;;;;5094660;28;20384;-72
2022/07/13 09:22:52;;;;;;;0.77;0.70;;;28.20;40.90;;;;;;5095031;28;20038;-73
2022/07/13 09:25:34;;;;;;;0.73;0.73;;;28.10;40.40;;;;;;5096577;28;20383;-73
2022/07/13 09:28:05;;;;;;;0.55;0.55;;;28.10;40.20;;;;;;5094872;28;20081;-72
2022/07/13 09:30:32;;;;;;;0.50;0.50;;;28.00;39.90;;;;;;5094264;28;20024;-72
2022/07/13 09:32:59;;;;;;;1.00;0.63;;;28.00;40.20;;;;;;5094533;28;20040;-75
2022/07/13 09:35:49;;;;;;;1.00;0.52;;;28.00;39.70;;;;;;5094248;28;20036;-75
2022/07/13 09:38:31;;;;;;;0.77;0.77;;;27.90;40.30;;;;;;5094460;28;20024;-76
2022/07/13 09:41:14;;;;;;;0.80;0.68;;;27.90;40.60;;;;;;5094104;28;20032;-76
2022/07/13 09:47:06;;;;;;;1.88;0.70;;;27.90;40.80;;;;;;5093488;28;20537;-74
2022/07/13 09:49:39;;;;;;;1.08;0.73;;;27.90;40.90;;;;;;5085465;28;20111;-73
2022/07/13 09:52:09;;;;;;;4.72;0.82;;;27.90;41.90;;;;;;5094058;28;20032;-73
2022/07/13 09:54:37;;;;;;;0.50;0.50;;;27.90;41.20;;;;;;5093135;28;20035;-73
2022/07/13 09:57:14;;;;;;;1.15;0.77;;;27.90;41.20;;;;;;5090753;28;20503;-74
2022/07/13 09:59:44;;;;;;;1.13;0.80;;;27.90;41.50;;;;;;5093416;28;20464;-74
2022/07/13 10:02:11;;;;;;;0.93;0.82;;;28.10;41.50;;;;;;5093368;28;20020;-74
2022/07/13 10:04:37;;;;;;;0.70;0.70;;;28.10;40.60;;;;;;5092040;28;20050;-73
2022/07/13 10:07:07;;;;;;;2.78;1.02;;;28.20;41.10;;;;;;5088346;28;20512;-73
2022/07/13 10:09:36;;;;;;;1.17;0.90;;;28.20;41.00;;;;;;5093808;28;20028;-73
2022/07/13 10:12:06;;;;;;;1.00;0.80;;;28.30;40.70;;;;;;5096592;28;20507;-74
2022/07/13 10:14:32;;;;;;;0.60;0.60;;;28.30;40.50;;;;;;5092698;28;20457;-73
2022/07/13 10:17:09;;;;;;;0.82;0.70;;;28.40;40.70;;;;;;5093571;28;20028;-74
2022/07/13 10:19:47;;;;;;;0.77;0.77;;;28.50;40.80;;;;;;5088777;28;20115;-73
2022/07/13 10:22:22;;;;;;;0.63;0.63;;;28.60;40.40;;;;;;5091479;28;20049;-73
2022/07/13 10:24:57;;;;;;;0.90;0.80;;;28.60;39.40;;;;;;5091187;28;20031;-74
2022/07/13 10:27:26;;;;;;;1.23;0.80;;;28.50;39.90;;;;;;5089676;28;20477;-74
2022/07/13 10:29:56;;;;;;;1.05;0.95;;;28.50;40.40;;;;;;5093350;28;20404;-71
2022/07/13 10:32:27;;;;;;;4.00;1.20;;;28.50;40.80;;;;;;5100077;28;20158;-76
2022/07/13 10:35:07;;;;;;;0.68;0.68;;;28.50;40.70;;;;;;5103845;28;20024;-77
2022/07/13 10:38:01;;;;;;;0.82;0.82;;;28.40;40.80;;;;;;5101362;28;20360;-77
2022/07/13 10:40:30;;;;;;;0.85;0.85;;;28.30;41.00;;;;;;5100437;28;20050;-76
2022/07/13 10:43:00;;;;;;;1.63;0.80;;;28.30;40.70;;;;;;5099891;28;20113;-68
2022/07/13 10:45:34;;;;;;;0.77;0.77;;;28.30;40.80;;;;;;5099927;28;20070;-68
2022/07/13 10:48:11;;;;;;;1.10;0.85;;;28.40;40.40;;;;;;5101494;28;20031;-71
2022/07/13 10:50:43;;;;;;;0.63;0.63;;;28.40;41.10;;;;;;5100032;28;20031;-71
2022/07/13 10:53:09;;;;;;;0.73;0.63;;;28.50;41.70;;;;;;5098011;28;20077;-71
2022/07/13 10:55:35;;;;;;;4.07;0.80;;;28.50;40.20;;;;;;5101375;28;20497;-71
2022/07/13 10:58:31;;;;;;;0.70;0.70;;;28.50;40.20;;;;;;5094197;28;20457;-71
2022/07/13 11:01:02;;;;;;;2.17;0.60;;;28.60;40.10;;;;;;5089368;28;20357;-70
2022/07/13 11:03:30;;;;;;;;;;;28.60;40.70;;;;;;5093913;28;20429;-70
2022/07/13 11:06:07;;;;;;;1.05;0.70;;;28.60;39.60;;;;;;5098005;28;20446;-70
2022/07/13 11:08:33;;;;;;;5.15;1.02;;;28.60;39.00;;;;;;5096339;28;20020;-70
2022/07/13 11:11:16;;;;;;;0.70;0.70;;;28.60;39.50;;;;;;5100461;28;20024;-71
2022/07/13 11:13:46;;;;;;;0.63;0.60;;;28.70;40.00;;;;;;5098368;28;20042;-70
2022/07/13 11:16:13;;;;;;;;;;;28.70;40.60;;;;;;5100989;28;20024;-69
2022/07/13 11:18:40;;;;;;;0.98;0.90;;;28.70;40.80;;;;;;5102051;28;19952;-70
2022/07/13 11:21:18;;;;;;;1.02;0.75;;;28.80;41.10;;;;;;5100955;28;20464;-70
2022/07/13 11:26:53;;;;;;;0.73;0.73;;;28.80;41.10;;;;;;5096488;28;20081;-77
2022/07/13 11:29:43;;;;;;;1.73;0.73;;;28.80;40.50;;;;;;5088564;28;20039;-77
2022/07/13 11:32:09;;;;;;;0.50;0.50;;;28.70;40.50;;;;;;5093538;28;20468;-77
2022/07/13 11:34:36;;;;;;;0.70;0.60;;;28.70;40.30;;;;;;5090709;28;20036;-77
2022/07/13 11:37:02;;;;;;;2.17;0.60;;;28.70;39.70;;;;;;5091071;28;20035;-77
2022/07/13 11:39:28;;;;;;;0.70;0.70;;;28.70;39.50;;;;;;5091483;28;20035;-78
2022/07/13 11:41:56;;;;;;;0.60;0.60;;;28.80;39.40;;;;;;5091798;28;20024;-78
2022/07/13 11:44:26;;;;;;;0.70;0.70;;;28.80;38.70;;;;;;5090445;28;20024;-76
2022/07/13 11:46:56;;;;;;;2.10;0.95;;;28.80;38.90;;;;;;5091601;28;20376;-77
2022/07/13 11:49:23;;;;;;;0.73;0.70;;;28.80;37.30;;;;;;5091466;28;20031;-76
2022/07/13 11:51:50;;;;;;;1.15;0.90;;;28.80;38.00;;;;;;5092560;28;20392;-76
2022/07/13 11:54:23;;;;;;;0.45;0.45;;;28.80;38.70;;;;;;5090754;28;20032;-77
2022/07/13 11:56:56;;;;;;;0.85;0.60;;;28.80;37.90;;;;;;5092529;28;20024;-78
2022/07/13 11:59:39;;;;;;;0.75;0.60;;;28.80;38.50;;;;;;5091909;28;20020;-78
2022/07/13 12:02:09;;;;;;;1.10;0.60;;;28.90;38.80;;;;;;5092565;28;20016;-77
2022/07/13 12:04:42;;;;;;;0.77;0.73;;;28.90;38.00;;;;;;5091850;28;20028;-78
2022/07/13 12:07:13;;;;;;;1.15;0.80;;;28.90;38.60;;;;;;5092196;28;20082;-77
2022/07/13 12:09:54;;;;;;;4.38;0.80;;;28.90;38.80;;;;;;5091821;28;20036;-76
2022/07/13 12:12:22;;;;;;;3.47;0.60;;;29.00;39.10;;;;;;5092099;28;20032;-78
2022/07/13 12:14:49;;;;;;;2.25;0.60;;;29.00;38.50;;;;;;5092141;28;20028;-78
2022/07/13 12:17:15;;;;;;;0.77;0.77;;;29.00;39.10;;;;;;5092101;28;20024;-77
2022/07/13 12:19:41;;;;;;;0.82;0.70;;;29.10;38.90;;;;;;5091496;28;20494;-78
2022/07/13 12:22:07;;;;;;;0.50;0.50;;;29.20;38.40;;;;;;5092117;28;20032;-79
2022/07/13 12:24:33;;;;;;;0.63;0.63;;;29.20;35.20;;;;;;5091715;28;20476;-78
2022/07/13 12:26:59;;;;;;;0.43;0.40;;;29.20;35.10;;;;;;5085566;28;20093;-78
2022/07/13 12:29:30;;;;;;;2.60;1.17;;;29.20;34.80;;;;;;5075009;28;20048;-78
2022/07/13 12:31:56;;;;;;;2.50;0.52;;;29.30;35.00;;;;;;5075742;28;20070;-77
2022/07/13 12:34:22;;;;;;;0.63;0.40;;;29.40;34.40;;;;;;5075133;28;20065;-76
2022/07/13 12:36:49;;;;;;;0.63;0.63;;;29.40;33.60;;;;;;5075670;28;20619;-75
2022/07/13 12:39:14;;;;;;;0.85;0.50;;;29.40;33.60;;;;;;5075299;28;20469;-76
2022/07/13 12:41:44;;;;;;;0.60;0.57;;;29.40;34.00;;;;;;5075145;28;20032;-76
2022/07/13 12:44:10;;;;;;;0.40;0.40;;;29.40;34.20;;;;;;5075549;28;20477;-77
2022/07/13 12:46:58;;;;;;;0.50;0.50;;;29.50;34.50;;;;;;5075099;28;20039;-76
2022/07/13 12:49:39;;;;;;;0.70;0.57;;;29.50;33.50;;;;;;5074886;28;20103;-76
2022/07/13 12:52:06;;;;;;;0.50;0.50;;;29.50;31.80;;;;;;5075398;28;20060;-78
2022/07/13 12:54:47;;;;;;;1.48;1.02;;;29.50;31.80;;;;;;5074804;28;20032;-76
2022/07/13 12:57:16;;;;;;;1.58;0.73;;;29.50;33.40;;;;;;5075248;28;20044;-76
2022/07/13 13:00:00;;;;;;;0.52;0.50;;;29.60;33.30;;;;;;5074815;28;20055;-77